RYR1LP EDLW-LKPR
Flight info
| Callsign | RYR1LP |
|---|---|
| Flight time | 0h 55m |
| Altitude | 35000 |
| Route | GMH8Q GMH Q603 TESGA DCT ESATI DCT OSBIT L984 SULUS Z650 TONSU Z35 ODOMO DCT LOMKI LOMKI7P |
| Aircraft | B38M/M-SDE1FGHILORVWXY/HB1 |
Departure
| Time | 2026-05-06 19:34 |
|---|---|
| Airport | Dortmund Airport (EDLW) |
Arrival
| Time | 2026-05-06 20:30 |
|---|---|
| Airport | Václav Havel Airport Prague (LKPR) |
| Time | Latitude | Longitude | Altitude | Speed | Heading |
|---|---|---|---|---|---|
| 2026-05-06 19:08 | 51.51539 | 7.61180 | 428 ft | 0 kts | 152° |
| 2026-05-06 19:25 | 51.51545 | 7.61175 | 418 ft | 4 kts | 154° |
| 2026-05-06 19:25 | 51.51570 | 7.61159 | 421 ft | 4 kts | 165° |
| 2026-05-06 19:25 | 51.51596 | 7.61153 | 430 ft | 4 kts | 185° |
| 2026-05-06 19:26 | 51.51620 | 7.61166 | 430 ft | 4 kts | 224° |
| 2026-05-06 19:26 | 51.51626 | 7.61178 | 418 ft | 2 kts | 239° |
| 2026-05-06 19:28 | 51.51627 | 7.61178 | 417 ft | 0 kts | 239° |
| 2026-05-06 19:30 | 51.51623 | 7.61169 | 430 ft | 2 kts | 239° |
| 2026-05-06 19:31 | 51.51608 | 7.61129 | 421 ft | 6 kts | 239° |
| 2026-05-06 19:31 | 51.51585 | 7.61055 | 429 ft | 9 kts | 247° |
| 2026-05-06 19:31 | 51.51514 | 7.60828 | 430 ft | 15 kts | 239° |
| 2026-05-06 19:32 | 51.51455 | 7.60670 | 427 ft | 18 kts | 242° |
| 2026-05-06 19:32 | 51.51395 | 7.60492 | 430 ft | 19 kts | 238° |
| 2026-05-06 19:32 | 51.51366 | 7.60319 | 431 ft | 12 kts | 299° |
| 2026-05-06 19:32 | 51.51384 | 7.60289 | 426 ft | 0 kts | 322° |
| 2026-05-06 19:33 | 51.51392 | 7.60278 | 427 ft | 4 kts | 323° |
| 2026-05-06 19:33 | 51.51431 | 7.60241 | 421 ft | 11 kts | 331° |
| 2026-05-06 19:33 | 51.51484 | 7.60233 | 421 ft | 4 kts | 60° |
| 2026-05-06 19:34 | 51.51537 | 7.60381 | 419 ft | 45 kts | 59° |
| 2026-05-06 19:34 | 51.51835 | 7.61218 | 419 ft | 124 kts | 59° |
| 2026-05-06 19:34 | 51.52352 | 7.62674 | 593 ft | 164 kts | 58° |
| 2026-05-06 19:34 | 51.52924 | 7.64272 | 1476 ft | 163 kts | 59° |
| 2026-05-06 19:35 | 51.53439 | 7.65882 | 2351 ft | 168 kts | 62° |
| 2026-05-06 19:35 | 51.54013 | 7.67652 | 2836 ft | 186 kts | 59° |
| 2026-05-06 19:35 | 51.54712 | 7.69557 | 3300 ft | 212 kts | 58° |
| 2026-05-06 19:35 | 51.55515 | 7.71751 | 3764 ft | 241 kts | 59° |
| 2026-05-06 19:36 | 51.56233 | 7.74305 | 4470 ft | 262 kts | 76° |
| 2026-05-06 19:36 | 51.56192 | 7.77275 | 5251 ft | 272 kts | 109° |
| 2026-05-06 19:36 | 51.55265 | 7.79853 | 6238 ft | 273 kts | 136° |
| 2026-05-06 19:36 | 51.53699 | 7.81461 | 7257 ft | 266 kts | 166° |
| 2026-05-06 19:37 | 51.51882 | 7.81520 | 8179 ft | 265 kts | 200° |
| 2026-05-06 19:37 | 51.50309 | 7.80035 | 9173 ft | 265 kts | 215° |
| 2026-05-06 19:37 | 51.48698 | 7.78531 | 10072 ft | 270 kts | 209° |
| 2026-05-06 19:37 | 51.47568 | 7.77615 | 10481 ft | 281 kts | 207° |
| 2026-05-06 19:38 | 51.45067 | 7.75825 | 11124 ft | 306 kts | 201° |
| 2026-05-06 19:38 | 51.42923 | 7.75276 | 11718 ft | 322 kts | 179° |
| 2026-05-06 19:38 | 51.40699 | 7.76059 | 12441 ft | 334 kts | 163° |
| 2026-05-06 19:38 | 51.38510 | 7.77238 | 13266 ft | 339 kts | 164° |
| 2026-05-06 19:39 | 51.36265 | 7.78463 | 14045 ft | 344 kts | 163° |
| 2026-05-06 19:39 | 51.33990 | 7.79721 | 14840 ft | 347 kts | 163° |
| 2026-05-06 19:39 | 51.31716 | 7.80990 | 15632 ft | 351 kts | 163° |
| 2026-05-06 19:39 | 51.29391 | 7.82294 | 16408 ft | 355 kts | 163° |
| 2026-05-06 19:40 | 51.27045 | 7.83609 | 17168 ft | 359 kts | 163° |
| 2026-05-06 19:40 | 51.24678 | 7.84936 | 17906 ft | 363 kts | 164° |
| 2026-05-06 19:40 | 51.22280 | 7.86281 | 18518 ft | 368 kts | 163° |
| 2026-05-06 19:40 | 51.19851 | 7.87640 | 18718 ft | 370 kts | 163° |
| 2026-05-06 19:41 | 51.17431 | 7.89035 | 18774 ft | 370 kts | 159° |
| 2026-05-06 19:41 | 51.15206 | 7.91125 | 18796 ft | 372 kts | 150° |
| 2026-05-06 19:41 | 51.13018 | 7.93341 | 18787 ft | 373 kts | 150° |
| 2026-05-06 19:41 | 51.10865 | 7.95522 | 18782 ft | 373 kts | 150° |
| 2026-05-06 19:42 | 51.08679 | 7.97742 | 18780 ft | 373 kts | 150° |
| 2026-05-06 19:42 | 51.06492 | 7.99964 | 18784 ft | 373 kts | 150° |
| 2026-05-06 19:42 | 51.04309 | 8.02180 | 18782 ft | 372 kts | 150° |
| 2026-05-06 19:42 | 51.02123 | 8.04404 | 19101 ft | 373 kts | 149° |
| 2026-05-06 19:43 | 51.00185 | 8.07176 | 19732 ft | 381 kts | 131° |
| 2026-05-06 19:43 | 50.98848 | 8.10841 | 20322 ft | 390 kts | 116° |
| 2026-05-06 19:43 | 50.97713 | 8.14765 | 20841 ft | 392 kts | 120° |
| 2026-05-06 19:43 | 50.96491 | 8.18650 | 21404 ft | 395 kts | 120° |
| 2026-05-06 19:44 | 50.95277 | 8.22584 | 21951 ft | 399 kts | 117° |
| 2026-05-06 19:44 | 50.94355 | 8.26781 | 22498 ft | 405 kts | 111° |
| 2026-05-06 19:44 | 50.93463 | 8.30965 | 23009 ft | 408 kts | 112° |
| 2026-05-06 19:44 | 50.92527 | 8.35225 | 23498 ft | 411 kts | 112° |
| 2026-05-06 19:45 | 50.91571 | 8.39512 | 23933 ft | 414 kts | 112° |
| 2026-05-06 19:45 | 50.90601 | 8.43813 | 24376 ft | 416 kts | 112° |
| 2026-05-06 19:45 | 50.89623 | 8.48128 | 24829 ft | 418 kts | 112° |
| 2026-05-06 19:45 | 50.88636 | 8.52473 | 25218 ft | 421 kts | 114° |
| 2026-05-06 19:46 | 50.87636 | 8.56864 | 25586 ft | 425 kts | 114° |
| 2026-05-06 19:46 | 50.86631 | 8.61274 | 26032 ft | 427 kts | 114° |
| 2026-05-06 19:46 | 50.85630 | 8.65652 | 26437 ft | 429 kts | 114° |
| 2026-05-06 19:46 | 50.84601 | 8.70145 | 26849 ft | 432 kts | 114° |
| 2026-05-06 19:47 | 50.83573 | 8.74622 | 27249 ft | 434 kts | 114° |
| 2026-05-06 19:47 | 50.82556 | 8.79040 | 27641 ft | 437 kts | 114° |
| 2026-05-06 19:47 | 50.81514 | 8.83562 | 28022 ft | 439 kts | 114° |
| 2026-05-06 19:47 | 50.80470 | 8.88078 | 28412 ft | 441 kts | 114° |
| 2026-05-06 19:48 | 50.79413 | 8.92644 | 28786 ft | 443 kts | 114° |
| 2026-05-06 19:48 | 50.78350 | 8.97227 | 29152 ft | 445 kts | 114° |
| 2026-05-06 19:48 | 50.77279 | 9.01835 | 29511 ft | 448 kts | 114° |
| 2026-05-06 19:48 | 50.76201 | 9.06462 | 29853 ft | 450 kts | 114° |
| 2026-05-06 19:49 | 50.75115 | 9.11112 | 30145 ft | 452 kts | 114° |
| 2026-05-06 19:49 | 50.74039 | 9.15710 | 30434 ft | 454 kts | 114° |
| 2026-05-06 19:49 | 50.72940 | 9.20394 | 30737 ft | 456 kts | 114° |
| 2026-05-06 19:49 | 50.71838 | 9.25084 | 31019 ft | 457 kts | 114° |
| 2026-05-06 19:50 | 50.70727 | 9.29800 | 31298 ft | 459 kts | 114° |
| 2026-05-06 19:50 | 50.69609 | 9.34537 | 31587 ft | 461 kts | 114° |
| 2026-05-06 19:50 | 50.68487 | 9.39280 | 31833 ft | 464 kts | 114° |
| 2026-05-06 19:50 | 50.67355 | 9.44055 | 32075 ft | 466 kts | 114° |
| 2026-05-06 19:51 | 50.66215 | 9.48853 | 32379 ft | 467 kts | 115° |
| 2026-05-06 19:51 | 50.65075 | 9.53636 | 32751 ft | 466 kts | 115° |
| 2026-05-06 19:51 | 50.63935 | 9.58417 | 33129 ft | 465 kts | 115° |
| 2026-05-06 19:51 | 50.62810 | 9.63119 | 33502 ft | 464 kts | 115° |
| 2026-05-06 19:52 | 50.61671 | 9.67869 | 33841 ft | 464 kts | 115° |
| 2026-05-06 19:52 | 50.60530 | 9.72618 | 34113 ft | 464 kts | 115° |
| 2026-05-06 19:52 | 50.59387 | 9.77366 | 34395 ft | 463 kts | 115° |
| 2026-05-06 19:52 | 50.58247 | 9.82094 | 34627 ft | 463 kts | 115° |
| 2026-05-06 19:53 | 50.57096 | 9.86851 | 34747 ft | 466 kts | 115° |
| 2026-05-06 19:53 | 50.55942 | 9.91613 | 34748 ft | 466 kts | 115° |
| 2026-05-06 19:53 | 50.53634 | 10.01107 | 34743 ft | 465 kts | 115° |
| 2026-05-06 19:54 | 50.51315 | 10.10603 | 34745 ft | 465 kts | 115° |
| 2026-05-06 19:54 | 50.49007 | 10.20017 | 34760 ft | 465 kts | 115° |
| 2026-05-06 19:55 | 50.46676 | 10.29479 | 34755 ft | 464 kts | 116° |
| 2026-05-06 19:55 | 50.44337 | 10.38937 | 34752 ft | 464 kts | 116° |
| 2026-05-06 19:56 | 50.41994 | 10.48372 | 34768 ft | 464 kts | 116° |
| 2026-05-06 19:56 | 50.39659 | 10.57733 | 34761 ft | 464 kts | 116° |
| 2026-05-06 19:57 | 50.37307 | 10.67120 | 34760 ft | 462 kts | 116° |
| 2026-05-06 19:57 | 50.34944 | 10.76515 | 34788 ft | 465 kts | 117° |
| 2026-05-06 19:58 | 50.32565 | 10.85932 | 34775 ft | 465 kts | 117° |
| 2026-05-06 19:58 | 50.30402 | 10.95492 | 34766 ft | 472 kts | 106° |
| 2026-05-06 19:59 | 50.28970 | 11.05429 | 34739 ft | 468 kts | 109° |
| 2026-05-06 19:59 | 50.28175 | 11.10403 | 34529 ft | 460 kts | 110° |
| 2026-05-06 19:59 | 50.27402 | 11.15144 | 34262 ft | 456 kts | 110° |
| 2026-05-06 20:00 | 50.26611 | 11.19943 | 34010 ft | 455 kts | 110° |
| 2026-05-06 20:00 | 50.25822 | 11.24726 | 33756 ft | 454 kts | 110° |
| 2026-05-06 20:00 | 50.25034 | 11.29494 | 33471 ft | 452 kts | 111° |
| 2026-05-06 20:00 | 50.24248 | 11.34229 | 33181 ft | 449 kts | 111° |
| 2026-05-06 20:01 | 50.23465 | 11.38939 | 32898 ft | 446 kts | 111° |
| 2026-05-06 20:01 | 50.22698 | 11.43538 | 32618 ft | 442 kts | 111° |
| 2026-05-06 20:01 | 50.21925 | 11.48160 | 32341 ft | 439 kts | 111° |
| 2026-05-06 20:01 | 50.21156 | 11.52749 | 32058 ft | 435 kts | 111° |
| 2026-05-06 20:02 | 50.20392 | 11.57298 | 31753 ft | 432 kts | 111° |
| 2026-05-06 20:02 | 50.19628 | 11.61825 | 31485 ft | 430 kts | 111° |
| 2026-05-06 20:02 | 50.18870 | 11.66309 | 31041 ft | 426 kts | 111° |
| 2026-05-06 20:02 | 50.18116 | 11.70759 | 30564 ft | 423 kts | 111° |
| 2026-05-06 20:03 | 50.17367 | 11.75164 | 30198 ft | 417 kts | 111° |
| 2026-05-06 20:03 | 50.16637 | 11.79452 | 29830 ft | 411 kts | 112° |
| 2026-05-06 20:03 | 50.15906 | 11.83739 | 29343 ft | 408 kts | 111° |
| 2026-05-06 20:03 | 50.15178 | 11.87990 | 28824 ft | 405 kts | 111° |
| 2026-05-06 20:04 | 50.14454 | 11.92213 | 28313 ft | 402 kts | 111° |
| 2026-05-06 20:04 | 50.13733 | 11.96406 | 27851 ft | 399 kts | 111° |
| 2026-05-06 20:04 | 50.13016 | 12.00566 | 27333 ft | 397 kts | 111° |
| 2026-05-06 20:04 | 50.12294 | 12.04739 | 26757 ft | 398 kts | 111° |
| 2026-05-06 20:05 | 50.11578 | 12.08876 | 26391 ft | 394 kts | 111° |
| 2026-05-06 20:05 | 50.10864 | 12.12983 | 25987 ft | 392 kts | 111° |
| 2026-05-06 20:05 | 50.10155 | 12.17063 | 25594 ft | 389 kts | 110° |
| 2026-05-06 20:05 | 50.09457 | 12.21062 | 25182 ft | 386 kts | 110° |
| 2026-05-06 20:06 | 50.08755 | 12.25077 | 24786 ft | 383 kts | 110° |
| 2026-05-06 20:06 | 50.08057 | 12.29066 | 24384 ft | 381 kts | 110° |
| 2026-05-06 20:06 | 50.07359 | 12.33038 | 23992 ft | 378 kts | 110° |
| 2026-05-06 20:06 | 50.06666 | 12.36971 | 23608 ft | 376 kts | 110° |
| 2026-05-06 20:07 | 50.05977 | 12.40879 | 23227 ft | 373 kts | 110° |
| 2026-05-06 20:07 | 50.05292 | 12.44753 | 22806 ft | 370 kts | 111° |
| 2026-05-06 20:07 | 50.04613 | 12.48589 | 22395 ft | 366 kts | 111° |
| 2026-05-06 20:07 | 50.03945 | 12.52350 | 21992 ft | 364 kts | 111° |
| 2026-05-06 20:08 | 50.03273 | 12.56129 | 21586 ft | 362 kts | 111° |
| 2026-05-06 20:08 | 50.02604 | 12.59884 | 21184 ft | 359 kts | 110° |
| 2026-05-06 20:08 | 50.01938 | 12.63614 | 20805 ft | 357 kts | 110° |
| 2026-05-06 20:08 | 50.01274 | 12.67320 | 20419 ft | 355 kts | 110° |
| 2026-05-06 20:09 | 50.00613 | 12.71005 | 20031 ft | 353 kts | 110° |
| 2026-05-06 20:09 | 49.99956 | 12.74660 | 19652 ft | 351 kts | 110° |
| 2026-05-06 20:09 | 49.99300 | 12.78301 | 19282 ft | 348 kts | 110° |
| 2026-05-06 20:09 | 49.98648 | 12.81914 | 18914 ft | 346 kts | 110° |
| 2026-05-06 20:10 | 49.98007 | 12.85464 | 18531 ft | 345 kts | 110° |
| 2026-05-06 20:10 | 49.97361 | 12.89027 | 18188 ft | 342 kts | 110° |
| 2026-05-06 20:10 | 49.96716 | 12.92577 | 17802 ft | 340 kts | 110° |
| 2026-05-06 20:10 | 49.96074 | 12.96104 | 17377 ft | 339 kts | 110° |
| 2026-05-06 20:11 | 49.95434 | 12.99613 | 16994 ft | 337 kts | 110° |
| 2026-05-06 20:11 | 49.94797 | 13.03106 | 16609 ft | 335 kts | 110° |
| 2026-05-06 20:11 | 49.94162 | 13.06577 | 16239 ft | 333 kts | 110° |
| 2026-05-06 20:11 | 49.93528 | 13.10035 | 15852 ft | 332 kts | 110° |
| 2026-05-06 20:12 | 49.92903 | 13.13439 | 15590 ft | 325 kts | 110° |
| 2026-05-06 20:12 | 49.92280 | 13.16826 | 15098 ft | 327 kts | 110° |
| 2026-05-06 20:12 | 49.91657 | 13.20207 | 14718 ft | 325 kts | 110° |
| 2026-05-06 20:12 | 49.91060 | 13.23597 | 14318 ft | 326 kts | 104° |
| 2026-05-06 20:13 | 49.90843 | 13.27105 | 13938 ft | 327 kts | 97° |
| 2026-05-06 20:13 | 49.90711 | 13.30628 | 13533 ft | 327 kts | 97° |
| 2026-05-06 20:13 | 49.90583 | 13.34095 | 13127 ft | 325 kts | 97° |
| 2026-05-06 20:13 | 49.90456 | 13.37570 | 12824 ft | 321 kts | 97° |
| 2026-05-06 20:14 | 49.90330 | 13.41025 | 12773 ft | 322 kts | 97° |
| 2026-05-06 20:14 | 49.90202 | 13.44490 | 12785 ft | 323 kts | 97° |
| 2026-05-06 20:14 | 49.90074 | 13.47956 | 12786 ft | 319 kts | 97° |
| 2026-05-06 20:14 | 49.89947 | 13.51380 | 12786 ft | 317 kts | 97° |
| 2026-05-06 20:15 | 49.89994 | 13.54800 | 12752 ft | 320 kts | 81° |
| 2026-05-06 20:15 | 49.90838 | 13.57995 | 12754 ft | 322 kts | 60° |
| 2026-05-06 20:15 | 49.92274 | 13.60597 | 12312 ft | 325 kts | 39° |
| 2026-05-06 20:15 | 49.94086 | 13.62667 | 11955 ft | 322 kts | 35° |
| 2026-05-06 20:16 | 49.95889 | 13.64616 | 11635 ft | 311 kts | 34° |
| 2026-05-06 20:16 | 49.97631 | 13.66492 | 11350 ft | 299 kts | 34° |
| 2026-05-06 20:16 | 49.99313 | 13.68300 | 11040 ft | 288 kts | 34° |
| 2026-05-06 20:16 | 50.00923 | 13.70027 | 10635 ft | 278 kts | 35° |
| 2026-05-06 20:17 | 50.02506 | 13.71724 | 10152 ft | 273 kts | 34° |
| 2026-05-06 20:17 | 50.04045 | 13.73364 | 9798 ft | 263 kts | 35° |
| 2026-05-06 20:17 | 50.05523 | 13.74940 | 9437 ft | 251 kts | 34° |
| 2026-05-06 20:17 | 50.06950 | 13.76476 | 8853 ft | 248 kts | 34° |
| 2026-05-06 20:18 | 50.08356 | 13.77903 | 8755 ft | 246 kts | 24° |
| 2026-05-06 20:18 | 50.10009 | 13.78444 | 8787 ft | 244 kts | 358° |
| 2026-05-06 20:18 | 50.11706 | 13.78394 | 8812 ft | 244 kts | 355° |
| 2026-05-06 20:18 | 50.13382 | 13.78293 | 8792 ft | 244 kts | 355° |
| 2026-05-06 20:19 | 50.15080 | 13.78184 | 8774 ft | 245 kts | 355° |
| 2026-05-06 20:19 | 50.16781 | 13.78083 | 8770 ft | 245 kts | 355° |
| 2026-05-06 20:19 | 50.18482 | 13.77985 | 8766 ft | 244 kts | 355° |
| 2026-05-06 20:19 | 50.20184 | 13.77875 | 8777 ft | 244 kts | 354° |
| 2026-05-06 20:20 | 50.21881 | 13.77767 | 8774 ft | 244 kts | 355° |
| 2026-05-06 20:20 | 50.23005 | 13.77700 | 8766 ft | 244 kts | 355° |
| 2026-05-06 20:20 | 50.25258 | 13.77565 | 8768 ft | 245 kts | 355° |
| 2026-05-06 20:20 | 50.26960 | 13.77462 | 8780 ft | 245 kts | 355° |
| 2026-05-06 20:21 | 50.28659 | 13.77358 | 8766 ft | 244 kts | 355° |
| 2026-05-06 20:21 | 50.30356 | 13.77266 | 8769 ft | 244 kts | 355° |
| 2026-05-06 20:21 | 50.31478 | 13.77200 | 8769 ft | 244 kts | 355° |
| 2026-05-06 20:21 | 50.33177 | 13.77107 | 8769 ft | 244 kts | 355° |
| 2026-05-06 20:22 | 50.34869 | 13.77351 | 8731 ft | 247 kts | 18° |
| 2026-05-06 20:22 | 50.36282 | 13.78812 | 8710 ft | 246 kts | 50° |
| 2026-05-06 20:22 | 50.37091 | 13.82008 | 8767 ft | 239 kts | 94° |
| 2026-05-06 20:22 | 50.36704 | 13.84447 | 8789 ft | 228 kts | 126° |
| 2026-05-06 20:23 | 50.35625 | 13.86160 | 8781 ft | 217 kts | 150° |
| 2026-05-06 20:23 | 50.34770 | 13.86992 | 8468 ft | 214 kts | 154° |
| 2026-05-06 20:23 | 50.33462 | 13.88159 | 7849 ft | 217 kts | 155° |
| 2026-05-06 20:23 | 50.32161 | 13.89299 | 7324 ft | 217 kts | 155° |
| 2026-05-06 20:24 | 50.30846 | 13.90440 | 6840 ft | 214 kts | 154° |
| 2026-05-06 20:24 | 50.29554 | 13.91539 | 6619 ft | 213 kts | 155° |
| 2026-05-06 20:24 | 50.28247 | 13.92650 | 6348 ft | 214 kts | 155° |
| 2026-05-06 20:24 | 50.26965 | 13.93833 | 6076 ft | 215 kts | 151° |
| 2026-05-06 20:25 | 50.25726 | 13.95138 | 5794 ft | 214 kts | 148° |
| 2026-05-06 20:25 | 50.24566 | 13.96601 | 5512 ft | 215 kts | 140° |
| 2026-05-06 20:25 | 50.23541 | 13.98320 | 5248 ft | 217 kts | 134° |
| 2026-05-06 20:25 | 50.22594 | 14.00152 | 4961 ft | 217 kts | 133° |
| 2026-05-06 20:26 | 50.21681 | 14.02014 | 4684 ft | 215 kts | 132° |
| 2026-05-06 20:26 | 50.20784 | 14.03878 | 4400 ft | 214 kts | 130° |
| 2026-05-06 20:26 | 50.19922 | 14.05668 | 4116 ft | 204 kts | 131° |
| 2026-05-06 20:26 | 50.19097 | 14.07375 | 3876 ft | 189 kts | 133° |
| 2026-05-06 20:27 | 50.18340 | 14.08955 | 3617 ft | 173 kts | 130° |
| 2026-05-06 20:27 | 50.17626 | 14.10433 | 3434 ft | 170 kts | 130° |
| 2026-05-06 20:27 | 50.16914 | 14.11903 | 3204 ft | 169 kts | 131° |
| 2026-05-06 20:27 | 50.16216 | 14.13351 | 2978 ft | 166 kts | 130° |
| 2026-05-06 20:28 | 50.15541 | 14.14741 | 2749 ft | 156 kts | 130° |
| 2026-05-06 20:28 | 50.14905 | 14.16070 | 2576 ft | 153 kts | 133° |
| 2026-05-06 20:28 | 50.14273 | 14.17365 | 2357 ft | 151 kts | 130° |
| 2026-05-06 20:28 | 50.13643 | 14.18669 | 2151 ft | 149 kts | 132° |
| 2026-05-06 20:29 | 50.13020 | 14.19958 | 1934 ft | 148 kts | 133° |
| 2026-05-06 20:29 | 50.12397 | 14.21232 | 1787 ft | 148 kts | 131° |
| 2026-05-06 20:29 | 50.11776 | 14.22511 | 1505 ft | 148 kts | 130° |
| 2026-05-06 20:29 | 50.11160 | 14.23794 | 1338 ft | 149 kts | 128° |
| 2026-05-06 20:30 | 50.10558 | 14.25052 | 1175 ft | 131 kts | 129° |
| 2026-05-06 20:30 | 50.09873 | 14.26570 | 1217 ft | 36 kts | 86° |
| 2026-05-06 20:30 | 50.09900 | 14.26859 | 1221 ft | 12 kts | 81° |
| 2026-05-06 20:31 | 50.09911 | 14.26975 | 1222 ft | 10 kts | 83° |
| 2026-05-06 20:31 | 50.09918 | 14.27083 | 1221 ft | 11 kts | 83° |
| 2026-05-06 20:31 | 50.09969 | 14.27125 | 1217 ft | 6 kts | 353° |
| 2026-05-06 20:31 | 50.09984 | 14.27074 | 1217 ft | 14 kts | 275° |
| 2026-05-06 20:32 | 50.10039 | 14.26934 | 1217 ft | 21 kts | 308° |
| 2026-05-06 20:32 | 50.10154 | 14.26690 | 1211 ft | 36 kts | 307° |
| 2026-05-06 20:32 | 50.10301 | 14.26388 | 1201 ft | 29 kts | 307° |
| 2026-05-06 20:32 | 50.10396 | 14.26195 | 1197 ft | 15 kts | 309° |
| 2026-05-06 20:33 | 50.10465 | 14.26051 | 1195 ft | 12 kts | 309° |
| 2026-05-06 20:33 | 50.10538 | 14.25889 | 1189 ft | 22 kts | 306° |
| 2026-05-06 20:33 | 50.10638 | 14.25817 | 1185 ft | 18 kts | 39° |
| 2026-05-06 20:33 | 50.10759 | 14.25953 | 1177 ft | 5 kts | 41° |
| 2026-05-06 20:34 | 50.10775 | 14.25978 | 1178 ft | 8 kts | 36° |
| 2026-05-06 20:34 | 50.10776 | 14.26016 | 1177 ft | 5 kts | 125° |
| 2026-05-06 20:34 | 50.10772 | 14.26027 | 1176 ft | 0 kts | 123° |
| 2026-05-06 20:34 | 50.10762 | 14.26051 | 1176 ft | 8 kts | 124° |